Time;durP1;ratioP1;P1;durP2;ratioP2;P2;SDS_P1;SDS_P2;PMS_P1;PMS_P2;Temp;Humidity;BMP_temperature;BMP_pressure;BME280_temperature;BME280_humidity;BME280_pressure;Samples;Min_cycle;Max_cycle;Signal;HPM_P1;HPM_P2
2022/04/14 00:01:40;;;;;;;;;;;18.70;99.90;;;;;;4862204;29;20265;-74
2022/04/14 00:04:07;;;;;;;;;;;18.70;99.90;;;;;;4879214;29;20528;-74
2022/04/14 00:06:33;;;;;;;;;;;18.80;99.90;;;;;;4879035;29;20299;-74
2022/04/14 00:09:00;;;;;;;;;;;18.90;99.90;;;;;;4879022;29;19943;-74
2022/04/14 00:11:27;;;;;;;;;;;19.10;99.90;;;;;;4879080;29;19918;-74
2022/04/14 00:13:53;;;;;;;;;;;19.20;99.90;;;;;;4878983;29;20386;-74
2022/04/14 00:16:20;;;;;;;;;;;19.20;99.90;;;;;;4879204;29;19984;-75
2022/04/14 00:18:47;;;;;;;;;;;19.20;99.90;;;;;;4879035;29;19911;-74
2022/04/14 00:21:14;;;;;;;;;;;19.20;99.90;;;;;;4862290;29;19928;-74
2022/04/14 00:23:40;;;;;;;;;;;19.20;99.90;;;;;;4879025;29;19923;-74
2022/04/14 00:26:07;;;;;;;;;;;19.30;99.90;;;;;;4878818;29;19968;-74
2022/04/14 00:28:34;;;;;;;;;;;19.40;99.90;;;;;;4878963;29;20011;-74
2022/04/14 00:31:03;;;;;;;;;;;19.80;99.90;;;;;;4878810;29;19912;-74
2022/04/14 00:33:29;;;;;;;;;;;19.90;99.90;;;;;;4878843;29;20316;-74
2022/04/14 00:35:56;;;;;;;;;;;19.90;99.90;;;;;;4878904;29;20010;-74
2022/04/14 00:38:23;;;;;;;;;;;20.00;99.90;;;;;;4882239;29;20456;-74
2022/04/14 00:40:55;;;;;;;;;;;20.00;99.90;;;;;;4865340;29;20433;-74
2022/04/14 00:43:30;;;;;;;;;;;19.90;99.90;;;;;;4865304;29;20428;-74
2022/04/14 00:45:57;;;;;;;;;;;19.90;99.90;;;;;;4882007;29;19968;-75
2022/04/14 00:48:24;;;;;;;;;;;19.90;99.90;;;;;;4881849;29;19923;-74
2022/04/14 00:50:51;;;;;;;;;;;19.70;99.90;;;;;;4882130;29;19912;-74
2022/04/14 00:53:18;;;;;;;;;;;19.60;99.90;;;;;;4881856;29;19980;-74
2022/04/14 00:55:44;;;;;;;;;;;19.60;99.90;;;;;;4881532;29;19959;-74
2022/04/14 00:58:11;;;;;;;;;;;19.60;99.90;;;;;;4881911;29;19935;-74
2022/04/14 01:00:38;;;;;;;;;;;19.50;99.90;;;;;;4881761;29;19927;-74
2022/04/14 01:03:05;;;;;;;;;;;19.50;99.90;;;;;;4881687;29;19927;-75
2022/04/14 01:05:33;;;;;;;;;;;19.50;99.90;;;;;;4881599;29;19928;-75
2022/04/14 01:08:00;;;;;;;;;;;19.40;99.90;;;;;;4881795;29;19912;-74
2022/04/14 01:10:28;;;;;;;;;;;19.50;99.90;;;;;;4864685;29;19912;-74
2022/04/14 01:12:54;;;;;;;;;;;19.70;99.90;;;;;;4881445;29;19947;-74
2022/04/14 01:15:21;;;;;;;;;;;19.80;99.90;;;;;;4881527;29;20007;-74
2022/04/14 01:17:48;;;;;;;;;;;19.80;99.90;;;;;;4864621;29;20359;-74
2022/04/14 01:20:14;;;;;;;;;;;19.80;99.90;;;;;;4881555;29;19919;-74
2022/04/14 01:22:55;;;;;;;;;;;19.70;99.90;;;;;;4881533;29;20089;-74
2022/04/14 01:25:22;;;;;;;;;;;19.80;99.90;;;;;;4881243;29;20260;-75
2022/04/14 01:27:50;;;;;;;;;;;19.80;99.90;;;;;;4881110;29;19912;-74
2022/04/14 01:30:17;;;;;;;;;;;19.80;99.90;;;;;;4881143;29;19919;-74
2022/04/14 01:32:43;;;;;;;;;;;19.90;99.90;;;;;;4881123;29;20006;-75
2022/04/14 01:35:10;;;;;;;;;;;20.20;99.90;;;;;;4874374;29;19916;-76
2022/04/14 01:37:37;;;;;;;;;;;20.30;99.90;;;;;;4862322;29;19919;-75
2022/04/14 01:40:04;;;;;;;;;;;20.50;99.90;;;;;;4861739;29;19971;-75
2022/04/14 01:42:30;;;;;;;;;;;20.70;99.90;;;;;;4861803;29;19912;-75
2022/04/14 01:44:57;;;;;;;;;;;20.90;99.90;;;;;;4861755;29;19916;-76
2022/04/14 01:47:24;;;;;;;;;;;21.00;99.90;;;;;;4864897;29;19916;-75
2022/04/14 01:49:50;;;;;;;;;;;21.20;99.90;;;;;;4880475;29;19912;-75
2022/04/14 01:52:18;;;;;;;;;;;21.30;99.90;;;;;;4880980;29;19998;-76
2022/04/14 01:54:44;;;;;;;;;;;21.30;99.90;;;;;;4880885;29;19912;-76
2022/04/14 01:57:11;;;;;;;;;;;21.40;99.90;;;;;;4880978;29;19960;-77
2022/04/14 01:59:38;;;;;;;;;;;21.50;99.90;;;;;;4880581;29;19916;-75
2022/04/14 02:02:04;;;;;;;;;;;21.60;99.90;;;;;;4880736;29;19916;-76
2022/04/14 02:04:31;;;;;;;;;;;21.60;99.90;;;;;;4880845;29;19920;-74
2022/04/14 02:06:58;;;;;;;;;;;21.70;99.90;;;;;;4880731;29;19912;-74
2022/04/14 02:09:24;;;;;;;;;;;21.70;99.90;;;;;;4880658;29;19928;-74
2022/04/14 02:11:51;;;;;;;;;;;21.60;99.90;;;;;;4880474;29;19912;-75
2022/04/14 02:14:21;;;;;;;;;;;21.60;99.90;;;;;;4879796;29;20182;-74
2022/04/14 02:16:48;;;;;;;;;;;21.60;99.90;;;;;;4880538;29;19970;-74
2022/04/14 02:19:14;;;;;;;;;;;21.50;99.90;;;;;;4880505;29;19918;-74
2022/04/14 02:21:41;;;;;;;;;;;21.40;99.90;;;;;;4880043;29;19916;-74
2022/04/14 02:24:08;;;;;;;;;;;21.40;99.90;;;;;;4880371;29;19912;-74
2022/04/14 02:26:34;;;;;;;;;;;21.40;99.90;;;;;;4880326;29;19919;-75
2022/04/14 02:29:01;;;;;;;;;;;21.40;99.90;;;;;;4880368;29;19947;-75
2022/04/14 02:31:28;;;;;;;;;;;21.70;99.90;;;;;;4880350;29;19923;-75
2022/04/14 02:33:54;;;;;;;;;;;21.60;99.90;;;;;;4867892;29;19924;-75
2022/04/14 02:36:21;;;;;;;;;;;21.50;99.90;;;;;;4879403;29;19968;-75
2022/04/14 02:38:48;;;;;;;;;;;21.70;99.90;;;;;;4879422;29;20255;-75
2022/04/14 02:41:14;;;;;;;;;;;21.60;99.90;;;;;;4879123;29;19935;-75
2022/04/14 02:43:41;;;;;;;;;;;21.70;99.90;;;;;;4879678;29;20288;-75
2022/04/14 02:46:08;;;;;;;;;;;21.70;99.90;;;;;;4880108;29;19963;-75
2022/04/14 02:48:34;;;;;;;;;;;21.80;99.90;;;;;;4880042;29;19912;-75
2022/04/14 02:51:01;;;;;;;;;;;21.80;99.90;;;;;;4879978;29;19911;-74
2022/04/14 02:53:28;;;;;;;;;;;21.70;99.90;;;;;;4879816;29;19912;-74
2022/04/14 02:55:54;;;;;;;;;;;21.60;99.90;;;;;;4879535;29;20046;-75
2022/04/14 02:58:21;;;;;;;;;;;21.30;99.90;;;;;;4879727;29;19912;-75
2022/04/14 03:00:49;;;;;;;;;;;21.20;99.90;;;;;;4878949;29;19954;-75
2022/04/14 03:03:17;;;;;;;;;;;21.00;99.90;;;;;;4879530;29;19923;-75
2022/04/14 03:05:43;;;;;;;;;;;21.10;99.90;;;;;;4879521;29;20007;-75
2022/04/14 03:08:10;;;;;;;;;;;21.00;99.90;;;;;;4879701;29;19919;-75
2022/04/14 03:10:37;;;;;;;;;;;21.00;99.90;;;;;;4879722;29;19919;-75
2022/04/14 03:13:03;;;;;;;;;;;20.90;99.90;;;;;;4879811;29;20364;-75
2022/04/14 03:15:30;;;;;;;;;;;21.10;99.90;;;;;;4879630;29;19974;-75
2022/04/14 03:17:57;;;;;;;;;;;21.20;99.90;;;;;;4879587;29;19916;-74
2022/04/14 03:20:23;;;;;;;;;;;21.20;99.90;;;;;;4879476;29;19930;-75
2022/04/14 03:22:50;;;;;;;;;;;21.10;99.90;;;;;;4879442;29;19991;-75
2022/04/14 03:25:17;;;;;;;;;;;21.20;99.90;;;;;;4879348;29;19912;-74
2022/04/14 03:27:43;;;;;;;;;;;21.30;99.90;;;;;;4879555;29;19916;-74
2022/04/14 03:30:10;;;;;;;;;;;21.20;99.90;;;;;;4879485;29;19998;-74
2022/04/14 03:32:40;;;;;;;;;;;21.20;99.90;;;;;;4879382;29;19963;-74
2022/04/14 03:35:07;;;;;;;;;;;21.30;99.90;;;;;;4879560;29;19912;-75
2022/04/14 03:37:34;;;;;;;;;;;21.40;99.90;;;;;;4879348;29;19968;-74
2022/04/14 03:40:01;;;;;;;;;;;21.50;99.90;;;;;;4879225;29;19915;-74
2022/04/14 03:42:28;;;;;;;;;;;21.40;99.90;;;;;;4879470;29;19919;-74
2022/04/14 03:44:54;;;;;;;;;;;21.50;99.90;;;;;;4879505;29;19912;-75
2022/04/14 03:47:21;;;;;;;;;;;21.40;99.90;;;;;;4879415;29;19919;-74
2022/04/14 03:49:48;;;;;;;;;;;21.40;99.90;;;;;;4879270;29;20002;-75
2022/04/14 03:52:14;;;;;;;;;;;21.40;99.90;;;;;;4879297;29;19912;-75
2022/04/14 03:54:41;;;;;;;;;;;21.40;99.90;;;;;;4879155;29;20324;-75
2022/04/14 03:57:07;;;;;;;;;;;21.50;99.90;;;;;;4879320;29;19912;-75
2022/04/14 03:59:34;;;;;;;;;;;21.40;99.90;;;;;;4879025;29;19912;-75
2022/04/14 04:02:01;;;;;;;;;;;21.40;99.90;;;;;;4879090;29;19984;-74
2022/04/14 04:04:27;;;;;;;;;;;21.40;99.90;;;;;;4879162;29;19916;-75
2022/04/14 04:06:54;;;;;;;;;;;21.20;99.90;;;;;;4879304;29;19919;-75
2022/04/14 04:09:21;;;;;;;;;;;21.10;99.90;;;;;;4879070;29;20010;-75
2022/04/14 04:11:47;;;;;;;;;;;21.20;99.90;;;;;;4880089;29;19915;-75
2022/04/14 04:14:14;;;;;;;;;;;21.20;99.90;;;;;;4882757;29;19918;-75
2022/04/14 04:16:41;;;;;;;;;;;21.10;99.90;;;;;;4882650;29;19968;-75
2022/04/14 04:19:08;;;;;;;;;;;21.10;99.90;;;;;;4882713;29;19912;-75
2022/04/14 04:21:35;;;;;;;;;;;21.10;99.90;;;;;;4882317;29;19926;-75
2022/04/14 04:24:01;;;;;;;;;;;21.00;99.90;;;;;;4882142;29;20002;-73
2022/04/14 04:26:28;;;;;;;;;;;21.00;99.90;;;;;;4882470;29;19919;-74
2022/04/14 04:28:55;;;;;;;;;;;21.00;99.90;;;;;;4882311;29;19911;-74
2022/04/14 04:31:22;;;;;;;;;;;21.10;99.90;;;;;;4882186;29;19919;-74
2022/04/14 04:33:51;;;;;;;;;;;21.00;99.90;;;;;;4882249;29;19911;-74
2022/04/14 04:36:18;;;;;;;;;;;21.10;99.90;;;;;;4882169;29;19938;-74
2022/04/14 04:38:44;;;;;;;;;;;21.10;99.90;;;;;;4880839;29;19912;-75
2022/04/14 04:41:11;;;;;;;;;;;21.10;99.90;;;;;;4865309;29;20279;-75
2022/04/14 04:43:37;;;;;;;;;;;21.10;99.90;;;;;;4881989;29;19919;-74
2022/04/14 04:46:04;;;;;;;;;;;21.10;99.90;;;;;;4881866;29;19918;-75
2022/04/14 04:48:31;;;;;;;;;;;21.10;99.90;;;;;;4881926;29;19918;-75
2022/04/14 04:50:57;;;;;;;;;;;21.10;99.90;;;;;;4881894;29;19960;-74
2022/04/14 04:53:24;;;;;;;;;;;21.10;99.90;;;;;;4881687;29;19919;-75
2022/04/14 04:55:51;;;;;;;;;;;21.00;99.90;;;;;;4881644;29;19979;-75
2022/04/14 04:58:17;;;;;;;;;;;21.00;99.90;;;;;;4881963;29;20371;-74
2022/04/14 05:00:45;;;;;;;;;;;21.10;99.90;;;;;;4881696;29;19920;-73
2022/04/14 05:03:13;;;;;;;;;;;21.10;99.90;;;;;;4881547;29;19924;-74
2022/04/14 05:05:43;;;;;;;;;;;21.00;99.90;;;;;;4864749;29;19919;-74
2022/04/14 05:08:09;;;;;;;;;;;21.00;99.90;;;;;;4881744;29;19935;-74
2022/04/14 05:10:36;;;;;;;;;;;20.90;99.90;;;;;;4881437;29;19919;-74
2022/04/14 05:13:04;;;;;;;;;;;20.90;99.90;;;;;;4881582;29;19959;-75
2022/04/14 05:15:31;;;;;;;;;;;20.90;99.90;;;;;;4881547;29;19998;-75
2022/04/14 05:17:57;;;;;;;;;;;20.90;99.90;;;;;;4881480;29;20002;-75
2022/04/14 05:20:24;;;;;;;;;;;21.00;99.90;;;;;;4881361;29;19920;-74
2022/04/14 05:22:51;;;;;;;;;;;20.90;99.90;;;;;;4880579;29;19947;-75
2022/04/14 05:25:17;;;;;;;;;;;20.90;99.90;;;;;;4881235;29;20006;-75
2022/04/14 05:27:44;;;;;;;;;;;20.90;99.90;;;;;;4881083;29;19919;-75
2022/04/14 05:30:14;;;;;;;;;;;20.90;99.90;;;;;;4881276;29;19916;-75
2022/04/14 05:32:41;;;;;;;;;;;20.90;99.90;;;;;;4881122;29;19911;-75
2022/04/14 05:35:08;;;;;;;;;;;20.80;99.90;;;;;;4881041;29;19966;-75
2022/04/14 05:37:35;;;;;;;;;;;20.80;99.90;;;;;;4880756;29;20360;-75
2022/04/14 05:40:03;;;;;;;;;;;20.80;99.90;;;;;;4881101;29;20447;-75
2022/04/14 05:42:30;;;;;;;;;;;20.80;99.90;;;;;;4864529;29;20004;-75
2022/04/14 05:44:56;;;;;;;;;;;20.80;99.90;;;;;;4880935;29;19919;-75
2022/04/14 05:47:24;;;;;;;;;;;20.80;99.90;;;;;;4881065;29;19964;-75
2022/04/14 05:49:52;;;;;;;;;;;20.80;99.90;;;;;;4880994;29;20373;-76
2022/04/14 05:52:18;;;;;;;;;;;20.80;99.90;;;;;;4880933;29;19950;-76
2022/04/14 05:54:48;;;;;;;;;;;20.70;99.90;;;;;;4880647;29;20316;-76
2022/04/14 05:57:15;;;;;;;;;;;20.80;99.90;;;;;;4880929;29;20432;-75
2022/04/14 05:59:42;;;;;;;;;;;20.70;99.90;;;;;;4880667;29;19911;-75
2022/04/14 06:02:09;;;;;;;;;;;20.70;99.90;;;;;;4880603;29;19982;-75
2022/04/14 06:04:36;;;;;;;;;;;20.70;99.90;;;;;;4880877;29;19926;-75
2022/04/14 06:07:03;;;;;;;;;;;20.70;99.90;;;;;;4880661;29;19919;-75
2022/04/14 06:09:29;;;;;;;;;;;20.70;99.90;;;;;;4880471;29;20327;-75
2022/04/14 06:11:56;;;;;;;;;;;20.60;99.90;;;;;;4880703;29;20058;-76
2022/04/14 06:14:24;;;;;;;;;;;20.60;99.90;;;;;;4880506;29;19915;-75
2022/04/14 06:16:51;;;;;;;;;;;20.50;99.90;;;;;;4880522;29;20398;-75
2022/04/14 06:19:18;;;;;;;;;;;20.50;99.90;;;;;;4880393;29;19916;-75
2022/04/14 06:21:45;;;;;;;;;;;20.40;99.90;;;;;;4880241;29;20276;-75
2022/04/14 06:24:11;;;;;;;;;;;20.40;99.90;;;;;;4880287;29;20485;-76
2022/04/14 06:26:38;;;;;;;;;;;20.40;99.90;;;;;;4880466;29;19912;-75
2022/04/14 06:29:04;;;;;;;;;;;20.40;99.90;;;;;;4880339;29;19919;-75
2022/04/14 06:31:31;;;;;;;;;;;20.30;99.90;;;;;;4880062;29;19912;-75
2022/04/14 06:33:58;;;;;;;;;;;20.30;99.90;;;;;;4879992;29;19934;-75
2022/04/14 06:36:24;;;;;;;;;;;20.30;99.90;;;;;;4880190;29;20376;-75
2022/04/14 06:38:51;;;;;;;;;;;20.30;99.90;;;;;;4880158;29;19916;-75
2022/04/14 06:41:18;;;;;;;;;;;20.30;99.90;;;;;;4880160;29;19927;-75
2022/04/14 06:43:49;;;;;;;;;;;20.30;99.90;;;;;;4879493;29;19919;-75
2022/04/14 06:46:16;;;;;;;;;;;20.20;99.90;;;;;;4879957;29;19969;-75
2022/04/14 06:48:43;;;;;;;;;;;20.10;99.90;;;;;;4879993;29;19919;-75
2022/04/14 06:51:10;;;;;;;;;;;20.20;99.90;;;;;;4878486;29;19922;-75
2022/04/14 06:53:37;;;;;;;;;;;20.10;99.90;;;;;;4861022;29;19912;-75
2022/04/14 06:56:05;;;;;;;;;;;20.00;99.90;;;;;;4877813;29;19912;-75
2022/04/14 06:58:31;;;;;;;;;;;20.00;99.90;;;;;;4877710;29;19923;-76
2022/04/14 07:00:58;;;;;;;;;;;20.00;99.90;;;;;;4877622;29;19959;-75
2022/04/14 07:03:26;;;;;;;;;;;20.00;99.90;;;;;;4877672;29;19932;-75
2022/04/14 07:05:54;;;;;;;;;;;20.00;99.90;;;;;;4877354;29;19948;-75
2022/04/14 07:08:24;;;;;;;;;;;19.90;99.90;;;;;;4877692;29;19912;-75
2022/04/14 07:10:52;;;;;;;;;;;19.90;99.90;;;;;;4860851;29;19912;-76
2022/04/14 07:13:18;;;;;;;;;;;19.90;99.90;;;;;;4877552;29;19940;-75
2022/04/14 07:15:45;;;;;;;;;;;19.80;99.90;;;;;;4877440;29;19994;-76
2022/04/14 07:18:12;;;;;;;;;;;19.80;99.90;;;;;;4862671;29;20743;-76
2022/04/14 07:20:39;;;;;;;;;;;19.80;99.90;;;;;;4858989;29;19994;-76
2022/04/14 07:23:08;;;;;;;;;;;19.80;99.90;;;;;;4858621;29;19916;-75
2022/04/14 07:25:35;;;;;;;;;;;19.70;99.90;;;;;;4858853;29;19972;-75
2022/04/14 07:28:02;;;;;;;;;;;19.60;99.90;;;;;;4859221;29;19919;-76
2022/04/14 07:30:29;;;;;;;;;;;19.60;99.90;;;;;;4858493;29;20373;-76
2022/04/14 07:32:56;;;;;;;;;;;19.60;99.90;;;;;;4858756;29;20328;-75
2022/04/14 07:35:23;;;;;;;;;;;19.50;99.90;;;;;;4858942;29;20352;-76
2022/04/14 07:37:50;;;;;;;;;;;19.50;99.90;;;;;;4858570;29;19919;-76
2022/04/14 07:40:16;;;;;;;;;;;19.40;99.90;;;;;;4858902;29;19920;-75
2022/04/14 07:42:45;;;;;;;;;;;19.40;99.90;;;;;;4858579;29;19920;-76
2022/04/14 07:45:12;;;;;;;;;;;19.40;99.90;;;;;;4858733;29;19916;-75
2022/04/14 07:47:42;;;;;;;;;;;19.30;99.90;;;;;;4861323;29;19916;-76
2022/04/14 07:50:10;;;;;;;;;;;19.30;99.90;;;;;;4862554;29;19916;-76
2022/04/14 07:52:46;;;;;;;;;;;19.30;99.90;;;;;;4862310;29;19916;-75
2022/04/14 07:55:17;;;;;;;;;;;19.20;99.90;;;;;;4862604;29;20000;-75
2022/04/14 07:57:44;;;;;;;;;;;19.20;99.90;;;;;;4860327;29;20257;-75
2022/04/14 08:00:11;;;;;;;;;;;19.20;99.90;;;;;;4862264;29;19916;-75
2022/04/14 08:02:45;;;;;;;;;;;19.20;99.90;;;;;;4862460;29;20011;-75
2022/04/14 08:05:12;;;;;;;;;;;19.20;99.90;;;;;;4862434;29;19924;-75
2022/04/14 08:07:39;;;;;;;;;;;19.20;99.90;;;;;;4861840;29;19951;-75
2022/04/14 08:10:05;;;;;;;;;;;19.20;99.90;;;;;;4861270;29;20003;-75
2022/04/14 08:12:32;;;;;;;;;;;19.20;99.90;;;;;;4862031;29;20313;-75
2022/04/14 08:14:59;;;;;;;;;;;19.10;99.90;;;;;;4862051;29;19916;-76
2022/04/14 08:17:25;;;;;;;;;;;19.10;99.90;;;;;;4845147;29;19912;-75
2022/04/14 08:19:52;;;;;;;;;;;19.10;99.90;;;;;;4861733;29;20215;-75
2022/04/14 08:22:19;;;;;;;;;;;19.00;99.90;;;;;;4861145;29;20404;-75
2022/04/14 08:24:47;;;;;;;;;;;19.00;99.90;;;;;;4861717;29;19956;-76
2022/04/14 08:27:14;;;;;;;;;;;19.00;99.90;;;;;;4861749;29;19916;-75
2022/04/14 08:29:41;;;;;;;;;;;19.00;99.90;;;;;;4861503;29;20007;-75
2022/04/14 08:32:09;;;;;;;;;;;18.90;99.90;;;;;;4861628;29;19912;-75
2022/04/14 08:34:36;;;;;;;;;;;19.00;99.90;;;;;;4861666;29;19912;-75
2022/04/14 08:37:03;;;;;;;;;;;18.90;99.90;;;;;;4861200;29;20012;-75
2022/04/14 08:39:30;;;;;;;;;;;18.90;99.90;;;;;;4861422;29;20428;-75
2022/04/14 08:42:01;;;;;;;;;;;18.90;99.90;;;;;;4861640;29;19920;-75
2022/04/14 08:44:30;;;;;;;;;;;18.90;99.90;;;;;;4861780;29;19950;-75
2022/04/14 08:46:58;;;;;;;;;;;18.90;99.90;;;;;;4861229;29;19919;-75
2022/04/14 08:49:26;;;;;;;;;;;18.80;99.90;;;;;;4861035;29;19916;-75
2022/04/14 08:51:53;;;;;;;;;;;18.80;99.90;;;;;;4861172;29;19912;-75
2022/04/14 08:54:20;;;;;;;;;;;18.80;99.90;;;;;;4861357;29;19916;-75
2022/04/14 08:56:47;;;;;;;;;;;18.80;99.90;;;;;;4861306;29;19960;-75
2022/04/14 08:59:15;;;;;;;;;;;18.80;99.90;;;;;;4861159;29;19947;-75
2022/04/14 09:01:42;;;;;;;;;;;18.80;99.90;;;;;;4860802;29;19976;-75
2022/04/14 09:04:09;;;;;;;;;;;18.70;99.90;;;;;;4861162;29;19931;-75
2022/04/14 09:06:36;;;;;;;;;;;18.70;99.90;;;;;;4862759;29;19973;-75
2022/04/14 09:09:03;;;;;;;;;;;18.70;99.90;;;;;;4863214;29;19913;-75
2022/04/14 09:11:33;;;;;;;;;;;18.70;99.90;;;;;;4863226;29;20332;-75
2022/04/14 09:14:00;;;;;;;;;;;18.70;99.90;;;;;;4863052;29;19967;-75
2022/04/14 09:16:30;;;;;;;;;;;18.70;99.90;;;;;;4863048;29;20417;-75
2022/04/14 09:19:00;;;;;;;;;;;18.60;99.90;;;;;;4863022;29;19919;-75
2022/04/14 09:21:27;;;;;;;;;;;18.60;99.90;;;;;;4862967;29;19939;-75
2022/04/14 09:23:53;;;;;;;;;;;18.60;99.90;;;;;;4862602;29;19994;-75
2022/04/14 09:26:23;;;;;;;;;;;18.60;99.90;;;;;;4862646;29;20377;-75
2022/04/14 09:29:07;;;;;;;;;;;18.50;99.90;;;;;;4862579;29;20272;-75
2022/04/14 09:31:48;;;;;;;;;;;18.60;99.90;;;;;;4862237;29;20036;-75
2022/04/14 09:34:18;;;;;;;;;;;18.50;99.90;;;;;;4862618;29;19912;-75
2022/04/14 09:37:03;;;;;;;;;;;18.50;99.90;;;;;;4862681;29;20253;-74
2022/04/14 09:39:29;;;;;;;;;;;18.50;99.90;;;;;;4862837;29;19912;-75
2022/04/14 09:41:56;;;;;;;;;;;18.50;99.90;;;;;;4862523;29;19968;-75
2022/04/14 09:44:23;;;;;;;;;;;18.50;99.90;;;;;;4862708;29;19967;-75
2022/04/14 09:46:49;;;;;;;;;;;18.40;99.90;;;;;;4862505;29;19912;-75
2022/04/14 09:49:19;;;;;;;;;;;18.40;99.90;;;;;;4862452;29;20057;-75
2022/04/14 09:51:46;;;;;;;;;;;18.40;99.90;;;;;;4862115;29;19968;-75
2022/04/14 09:54:18;;;;;;;;;;;18.40;99.90;;;;;;4862391;29;20410;-75
2022/04/14 09:56:46;;;;;;;;;;;18.40;99.90;;;;;;4862493;29;19912;-75
2022/04/14 09:59:19;;;;;;;;;;;18.40;99.90;;;;;;4862207;29;19920;-75
2022/04/14 10:01:47;;;;;;;;;;;18.40;99.90;;;;;;4861829;29;19924;-75
2022/04/14 10:04:33;;;;;;;;;;;18.40;99.90;;;;;;4861901;29;20000;-75
2022/04/14 10:07:09;;;;;;;;;;;18.40;99.90;;;;;;4861928;29;19919;-75
2022/04/14 10:09:40;;;;;;;;;;;18.40;99.90;;;;;;4861372;29;19947;-75
2022/04/14 10:12:16;;;;;;;;;;;18.40;99.90;;;;;;4862108;29;19977;-75
2022/04/14 10:14:44;;;;;;;;;;;18.40;99.90;;;;;;4861597;29;20296;-75
2022/04/14 10:17:11;;;;;;;;;;;18.40;99.90;;;;;;4861883;29;20428;-75
2022/04/14 10:19:38;;;;;;;;;;;18.50;99.90;;;;;;4861614;29;20003;-75
2022/04/14 10:22:06;;;;;;;;;;;18.50;99.90;;;;;;4861529;29;19923;-75
2022/04/14 10:24:35;;;;;;;;;;;18.50;99.90;;;;;;4861736;29;19912;-75
2022/04/14 10:27:03;;;;;;;;;;;18.40;99.90;;;;;;4861674;29;20281;-75
2022/04/14 10:29:29;;;;;;;;;;;18.30;99.90;;;;;;4861169;29;19968;-75
2022/04/14 10:31:56;;;;;;;;;;;18.30;99.90;;;;;;4861630;29;19913;-75
2022/04/14 10:34:24;;;;;;;;;;;18.20;99.90;;;;;;4861527;29;19922;-75
2022/04/14 10:36:51;;;;;;;;;;;18.20;99.90;;;;;;4861361;29;19919;-75
2022/04/14 10:39:19;;;;;;;;;;;18.20;99.90;;;;;;4861528;29;19916;-75
2022/04/14 10:41:47;;;;;;;;;;;18.10;99.90;;;;;;4861330;29;19969;-76
2022/04/14 10:44:13;;;;;;;;;;;18.10;99.90;;;;;;4860998;29;19916;-75
2022/04/14 10:46:41;;;;;;;;;;;18.00;99.90;;;;;;4861447;29;19912;-75
2022/04/14 10:49:15;;;;;;;;;;;18.00;99.90;;;;;;4861476;29;19912;-75
2022/04/14 10:51:43;;;;;;;;;;;18.00;99.90;;;;;;4861082;29;19912;-75
2022/04/14 10:54:10;;;;;;;;;;;18.00;99.90;;;;;;4861325;29;19960;-75
2022/04/14 10:56:37;;;;;;;;;;;18.00;99.90;;;;;;4861355;29;20382;-75
2022/04/14 10:59:04;;;;;;;;;;;18.00;99.90;;;;;;4860776;29;19917;-75
2022/04/14 11:01:59;;;;;;;;;;;18.00;99.90;;;;;;4861058;29;19978;-75
2022/04/14 11:04:31;;;;;;;;;;;18.00;99.90;;;;;;4860485;29;19967;-75
2022/04/14 11:06:59;;;;;;;;;;;18.00;99.90;;;;;;4861136;29;20268;-75
2022/04/14 11:09:59;;;;;;;;;;;18.00;99.90;;;;;;4861094;29;19913;-75
2022/04/14 11:12:41;;;;;;;;;;;18.00;99.90;;;;;;4861036;29;19912;-75
2022/04/14 11:15:08;;;;;;;;;;;18.00;99.90;;;;;;4860651;29;19944;-75
2022/04/14 11:17:37;;;;;;;;;;;18.00;99.90;;;;;;4860658;29;19978;-75
2022/04/14 11:20:25;;;;;;;;;;;17.90;99.90;;;;;;4861080;29;20011;-75
2022/04/14 11:23:08;;;;;;;;;;;17.90;99.90;;;;;;4860559;29;19923;-75
2022/04/14 11:25:50;;;;;;;;;;;17.80;99.90;;;;;;4860958;29;19912;-75
2022/04/14 11:28:18;;;;;;;;;;;17.80;99.90;;;;;;4876959;29;20395;-75
2022/04/14 11:30:45;;;;;;;;;;;17.80;99.90;;;;;;4879469;29;20438;-75
2022/04/14 11:33:13;;;;;;;;;;;17.90;99.90;;;;;;4879421;29;19920;-75
2022/04/14 11:35:44;;;;;;;;;;;17.90;99.90;;;;;;4879253;29;19912;-75
2022/04/14 11:38:30;;;;;;;;;;;17.90;99.90;;;;;;4879146;29;19999;-75
2022/04/14 11:40:57;;;;;;;;;;;17.90;99.90;;;;;;4878056;29;19920;-75
2022/04/14 11:43:23;;;;;;;;;;;17.90;99.90;;;;;;4876987;29;20354;-75
2022/04/14 11:45:51;;;;;;;;;;;17.90;99.90;;;;;;4877256;29;20014;-74
2022/04/14 11:48:18;;;;;;;;;;;17.90;99.90;;;;;;4877650;29;19922;-74
2022/04/14 11:50:44;;;;;;;;;;;17.90;99.90;;;;;;4877447;29;20003;-73
2022/04/14 11:53:11;;;;;;;;;;;17.90;99.90;;;;;;4877201;29;19960;-74
2022/04/14 11:55:39;;;;;;;;;;;17.90;99.90;;;;;;4877056;29;19911;-74
2022/04/14 11:58:09;;;;;;;;;;;17.80;99.90;;;;;;4877896;29;20352;-74
2022/04/14 12:00:43;;;;;;;;;;;17.90;99.90;;;;;;4878860;29;19920;-74
2022/04/14 12:03:09;;;;;;;;;;;17.90;99.90;;;;;;4879193;29;19923;-74
2022/04/14 12:05:36;;;;;;;;;;;17.90;99.90;;;;;;4879108;29;19936;-74
2022/04/14 12:08:09;;;;;;;;;;;17.90;99.90;;;;;;4879146;29;19915;-74
2022/04/14 12:10:36;;;;;;;;;;;18.00;99.90;;;;;;4878022;29;19968;-74
2022/04/14 12:13:06;;;;;;;;;;;17.90;99.90;;;;;;4869258;29;20010;-74
2022/04/14 12:15:33;;;;;;;;;;;17.90;99.90;;;;;;4859051;29;19916;-74
2022/04/14 12:18:07;;;;;;;;;;;17.90;99.90;;;;;;4857883;29;19916;-74
2022/04/14 12:20:37;;;;;;;;;;;17.90;99.90;;;;;;4857686;29;20353;-74
2022/04/14 12:23:07;;;;;;;;;;;17.90;99.90;;;;;;4857604;29;19920;-74
2022/04/14 12:25:34;;;;;;;;;;;17.90;99.90;;;;;;4857477;29;20011;-74
2022/04/14 12:28:01;;;;;;;;;;;17.90;99.90;;;;;;4858079;29;20339;-74
2022/04/14 12:30:29;;;;;;;;;;;17.90;99.90;;;;;;4858036;29;19916;-74
2022/04/14 12:33:03;;;;;;;;;;;17.90;99.90;;;;;;4859405;29;19912;-75
2022/04/14 12:35:30;;;;;;;;;;;17.80;99.90;;;;;;4861183;29;19912;-75
2022/04/14 12:38:10;;;;;;;;;;;17.80;99.90;;;;;;4860845;29;19912;-74
2022/04/14 12:40:37;;;;;;;;;;;17.80;99.90;;;;;;4861003;29;19930;-75
2022/04/14 12:43:06;;;;;;;;;;;17.80;99.90;;;;;;4861047;29;19943;-75
2022/04/14 12:45:39;;;;;;;;;;;17.80;99.90;;;;;;4860937;29;19919;-74
2022/04/14 12:48:06;;;;;;;;;;;17.80;99.90;;;;;;4860867;29;19912;-74
2022/04/14 12:50:32;;;;;;;;;;;17.80;99.90;;;;;;4860913;29;20372;-75
2022/04/14 12:52:59;;;;;;;;;;;17.80;99.90;;;;;;4860619;29;19919;-74
2022/04/14 12:55:27;;;;;;;;;;;17.90;99.90;;;;;;4860820;29;20019;-75
2022/04/14 12:58:09;;;;;;;;;;;17.90;99.90;;;;;;4860330;29;19999;-75
2022/04/14 13:00:36;;;;;;;;;;;17.90;99.90;;;;;;4860636;29;19992;-75
2022/04/14 13:03:05;;;;;;;;;;;17.90;99.90;;;;;;4860535;29;20085;-75
2022/04/14 13:05:37;;;;;;;;;;;17.90;99.90;;;;;;4860085;29;19916;-75
2022/04/14 13:08:04;;;;;;;;;;;17.80;99.90;;;;;;4860691;29;20007;-75
2022/04/14 13:10:34;;;;;;;;;;;17.70;99.90;;;;;;4860547;29;19943;-75
2022/04/14 13:13:02;;;;;;;;;;;17.80;99.90;;;;;;4860536;29;19913;-75
2022/04/14 13:15:29;;;;;;;;;;;17.80;99.90;;;;;;4860495;29;20006;-75
2022/04/14 13:17:56;;;;;;;;;;;17.90;99.90;;;;;;4860054;29;19977;-75
2022/04/14 13:20:31;;;;;;;;;;;18.00;99.90;;;;;;4860552;29;19970;-75
2022/04/14 13:22:58;;;;;;;;;;;18.00;99.90;;;;;;4860165;29;19924;-74
2022/04/14 13:25:25;;;;;;;;;;;18.10;99.90;;;;;;4860260;29;19912;-75
2022/04/14 13:27:52;;;;;;;;;;;18.10;99.90;;;;;;4859808;29;20003;-74
2022/04/14 13:30:19;;;;;;;;;;;18.00;99.90;;;;;;4859797;29;19920;-74
2022/04/14 13:32:46;;;;;;;;;;;18.00;99.90;;;;;;4860199;29;19916;-74
2022/04/14 13:35:13;;;;;;;;;;;18.00;99.90;;;;;;4860034;29;19923;-75
2022/04/14 13:37:42;;;;;;;;;;;17.90;99.90;;;;;;4859864;29;19927;-75
2022/04/14 13:40:09;;;;;;;;;;;17.80;99.90;;;;;;4859789;29;19916;-75
2022/04/14 13:42:36;;;;;;;;;;;17.80;99.90;;;;;;4859835;29;19919;-75
2022/04/14 13:45:03;;;;;;;;;;;17.70;99.90;;;;;;4858634;29;19912;-74
2022/04/14 13:47:30;;;;;;;;;;;17.70;99.90;;;;;;4859454;29;20375;-75
2022/04/14 13:49:56;;;;;;;;;;;17.70;99.90;;;;;;4859571;29;20385;-74
2022/04/14 13:52:23;;;;;;;;;;;17.80;99.90;;;;;;4859532;29;20465;-74
2022/04/14 13:54:50;;;;;;;;;;;17.80;99.90;;;;;;4859484;29;19919;-75
2022/04/14 13:57:17;;;;;;;;;;;17.80;99.90;;;;;;4859098;29;19912;-75
2022/04/14 13:59:43;;;;;;;;;;;17.70;99.90;;;;;;4859533;29;19976;-75
2022/04/14 14:02:10;;;;;;;;;;;17.70;99.90;;;;;;4859350;29;19924;-75
2022/04/14 14:04:37;;;;;;;;;;;17.60;99.90;;;;;;4859556;29;20533;-75
2022/04/14 14:07:04;;;;;;;;;;;17.60;99.90;;;;;;4859184;29;19916;-74
2022/04/14 14:09:30;;;;;;;;;;;17.50;99.90;;;;;;4858857;29;20029;-74
2022/04/14 14:11:57;;;;;;;;;;;17.50;99.90;;;;;;4859216;29;19916;-74
2022/04/14 14:14:25;;;;;;;;;;;17.40;99.90;;;;;;4859205;29;20423;-75
2022/04/14 14:16:51;;;;;;;;;;;17.40;99.90;;;;;;4859095;29;20020;-75
2022/04/14 14:19:18;;;;;;;;;;;17.40;99.90;;;;;;4859347;29;19916;-74
2022/04/14 14:21:45;;;;;;;;;;;17.40;99.90;;;;;;4858989;29;19963;-75